Time;durP1;ratioP1;P1;durP2;ratioP2;P2;SDS_P1;SDS_P2;PMS_P1;PMS_P2;Temp;Humidity;BMP_temperature;BMP_pressure;BME280_temperature;BME280_humidity;BME280_pressure;Samples;Min_cycle;Max_cycle;Signal;HPM_P1;HPM_P2
2022/12/12 00:01:14;;;;;;;;;;;;;;;1.12;100.00;98453.63;5083470;28;19928;-71
2022/12/12 00:03:40;;;;;;;;;;;;;;;1.12;100.00;98459.81;5083964;28;19928;-71
2022/12/12 00:06:05;;;;;;;;;;;;;;;1.13;100.00;98452.56;5085107;28;20414;-71
2022/12/12 00:08:31;;;;;;;;;;;;;;;1.15;100.00;98438.84;5085946;28;19928;-70
2022/12/12 00:10:57;;;;;;;;;;;;;;;1.13;100.00;98455.28;5082645;28;20011;-70
2022/12/12 00:13:23;;;;;;;;;;;;;;;1.16;100.00;98456.63;5085004;28;20026;-71
2022/12/12 00:15:49;;;;;;;;;;;;;;;1.15;100.00;98449.63;5082990;28;19981;-70
2022/12/12 00:18:16;;;;;;;;;;;;;;;1.16;100.00;98441.31;5082859;28;19928;-72
2022/12/12 00:20:42;;;;;;;;;;;;;;;1.19;100.00;98453.47;5085605;28;20028;-71
2022/12/12 00:23:07;;;;;;;;;;;;;;;1.17;100.00;98442.94;5084604;28;19972;-71
2022/12/12 00:25:33;;;;;;;;;;;;;;;1.16;100.00;98449.38;5083422;28;19928;-70
2022/12/12 00:27:59;;;;;;;;;;;;;;;1.16;100.00;98456.63;5083350;28;19928;-71
2022/12/12 00:30:25;;;;;;;;;;;;;;;1.16;100.00;98444.00;5084761;28;20407;-72
2022/12/12 00:32:50;;;;;;;;;;;;;;;1.16;100.00;98454.78;5081812;28;20481;-71
2022/12/12 00:35:18;;;;;;;;;;;;;;;1.18;100.00;98447.25;5083944;28;20390;-71
2022/12/12 00:37:43;;;;;;;;;;;;;;;1.18;100.00;98449.94;5082988;28;20019;-71
2022/12/12 00:40:10;;;;;;;;;;;;;;;1.17;100.00;98455.56;5084962;28;20390;-71
2022/12/12 00:42:36;;;;;;;;;;;;;;;1.14;100.00;98448.81;5086095;28;20035;-71
2022/12/12 00:45:01;;;;;;;;;;;;;;;1.14;100.00;98440.75;5082443;28;20023;-71
2022/12/12 00:47:28;;;;;;;;;;;;;;;1.15;100.00;98437.00;5086439;28;19928;-72
2022/12/12 00:49:54;;;;;;;;;;;;;;;1.14;100.00;98443.44;5083238;28;19927;-67
2022/12/12 00:52:21;;;;;;;;;;;;;;;1.16;100.00;98456.63;5082537;28;20340;-67
2022/12/12 00:54:46;;;;;;;;;;;;;;;1.11;100.00;98447.44;5114724;27;20314;-67
2022/12/12 00:57:12;;;;;;;;;;;;;;;1.12;100.00;98442.88;5084953;28;19928;-68
2022/12/12 00:59:38;;;;;;;;;;;;;;;1.10;100.00;98442.31;5083980;28;20229;-70
2022/12/12 01:02:04;;;;;;;;;;;;;;;1.09;100.00;98444.16;5085194;28;19928;-71
2022/12/12 01:04:29;;;;;;;;;;;;;;;1.10;100.00;98447.69;5083055;28;19928;-71
2022/12/12 01:06:55;;;;;;;;;;;;;;;1.11;100.00;98450.13;5083016;28;19928;-70
2022/12/12 01:09:22;;;;;;;;;;;;;;;1.02;100.00;98429.25;5084945;28;20454;-71
2022/12/12 01:11:48;;;;;;;;;;;;;;;1.10;100.00;98447.69;5086084;28;19981;-67
2022/12/12 01:14:14;;;;;;;;;;;;;;;1.12;100.00;98454.44;5083638;28;19928;-67
2022/12/12 01:16:39;;;;;;;;;;;;;;;1.11;100.00;98443.94;5082569;28;19997;-67
2022/12/12 01:19:05;;;;;;;;;;;;;;;1.10;100.00;98443.09;5083616;28;19963;-66
2022/12/12 01:21:30;;;;;;;;;;;;;;;1.09;100.00;98437.94;5083335;28;20291;-67
2022/12/12 01:23:56;;;;;;;;;;;;;;;1.12;100.00;98453.63;5082960;28;20027;-67
2022/12/12 01:26:23;;;;;;;;;;;;;;;1.10;100.00;98439.63;5084923;28;19973;-67
2022/12/12 01:28:50;;;;;;;;;;;;;;;1.09;100.00;98444.16;5083597;28;19928;-67
2022/12/12 01:31:16;;;;;;;;;;;;;;;1.09;100.00;98448.72;5081890;28;19935;-68
2022/12/12 01:33:44;;;;;;;;;;;;;;;1.10;100.00;98451.19;5081229;28;19932;-67
2022/12/12 01:36:15;;;;;;;;;;;;;;;1.09;100.00;98454.94;5062898;28;19928;-67
2022/12/12 01:38:41;;;;;;;;;;;;;;;1.10;100.00;98451.19;5077169;28;19928;-67
2022/12/12 01:41:07;;;;;;;;;;;;;;;1.05;100.00;98439.50;5081494;28;20386;-68
2022/12/12 01:43:34;;;;;;;;;;;;;;;1.12;100.00;98451.75;5079599;28;19939;-68
2022/12/12 01:46:17;;;;;;;;;;;;;;;1.11;100.00;98431.28;5078688;28;19971;-65
2022/12/12 01:48:45;;;;;;;;;;;;;;;1.14;100.00;98448.81;5082963;28;20208;-68
2022/12/12 01:51:13;;;;;;;;;;;;;;;1.12;100.00;98435.59;5061333;28;19939;-67
2022/12/12 01:53:40;;;;;;;;;;;;;;;1.12;100.00;98435.59;5066255;28;19985;-67
2022/12/12 01:56:07;;;;;;;;;;;;;;;1.15;100.00;98442.38;5083208;28;19928;-67
2022/12/12 01:58:35;;;;;;;;;;;;;;;1.16;100.00;98443.16;5080819;28;20457;-67
2022/12/12 02:01:00;;;;;;;;;;;;;;;1.16;100.00;98448.56;5082271;28;19928;-67
2022/12/12 02:03:26;;;;;;;;;;;;;;;1.17;100.00;98444.81;5082523;28;20406;-67
2022/12/12 02:05:55;;;;;;;;;;;;;;;1.19;100.00;98440.81;5084389;28;20370;-65
2022/12/12 02:08:21;;;;;;;;;;;;;;;1.17;100.00;98452.88;5082581;28;20026;-66
2022/12/12 02:10:47;;;;;;;;;;;;;;;1.16;100.00;98432.41;5080930;28;19936;-66
2022/12/12 02:13:15;;;;;;;;;;;;;;;1.16;100.00;98443.16;5082626;28;20420;-66
2022/12/12 02:15:44;;;;;;;;;;;;;;;1.16;100.00;98446.69;5081192;28;19973;-72
2022/12/12 02:18:13;;;;;;;;;;;;;;;1.20;100.00;98452.41;5084647;28;19943;-71
2022/12/12 02:20:47;;;;;;;;;;;;;;;1.19;100.00;98445.41;5081189;28;19935;-70
2022/12/12 02:23:28;;;;;;;;;;;;;;;1.20;100.00;98445.13;5080553;28;19932;-70
2022/12/12 02:26:20;;;;;;;;;;;;;;;1.18;100.00;98444.56;5069862;28;20148;-71
2022/12/12 02:29:01;;;;;;;;;;;;;;;1.19;100.00;98442.72;5053306;28;20395;-71
2022/12/12 02:31:30;;;;;;;;;;;;;;;1.21;100.00;98448.66;5024756;28;19928;-71
2022/12/12 02:34:00;;;;;;;;;;;;;;;1.19;100.00;98456.97;5082222;28;19985;-70
2022/12/12 02:36:31;;;;;;;;;;;;;;;1.21;100.00;98441.38;5082929;28;19982;-70
2022/12/12 02:39:03;;;;;;;;;;;;;;;1.19;100.00;98445.41;5081740;28;19939;-70
2022/12/12 02:41:34;;;;;;;;;;;;;;;1.21;100.00;98444.06;5079823;28;19973;-72
2022/12/12 02:44:07;;;;;;;;;;;;;;;1.22;100.00;98447.59;5078410;28;20292;-71
2022/12/12 02:46:37;;;;;;;;;;;;;;;1.21;100.00;98444.06;5081528;28;20413;-71
2022/12/12 02:49:05;;;;;;;;;;;;;;;1.22;100.00;98451.09;5081620;28;19932;-71
2022/12/12 02:51:32;;;;;;;;;;;;;;;1.22;100.00;98455.66;5081374;28;19928;-72
2022/12/12 02:53:58;;;;;;;;;;;;;;;1.21;100.00;98451.34;5083214;28;19934;-70
2022/12/12 02:56:45;;;;;;;;;;;;;;;1.22;100.00;98448.38;5082559;28;19932;-70
2022/12/12 02:59:12;;;;;;;;;;;;;;;1.23;100.00;98463.47;5082110;28;19952;-71
2022/12/12 03:01:44;;;;;;;;;;;;;;;1.22;100.00;98444.91;5083115;28;19963;-71
2022/12/12 03:09:58;;;;;;;;;;;;;;;1.21;100.00;98449.44;5080711;28;19986;-71
2022/12/12 03:12:29;;;;;;;;;;;;;;;1.23;100.00;98450.03;5064489;28;19932;-70
2022/12/12 03:15:00;;;;;;;;;;;;;;;1.25;100.00;98441.72;5081890;28;20539;-72
2022/12/12 03:17:30;;;;;;;;;;;;;;;1.24;100.00;98446.25;5080087;28;19959;-70
2022/12/12 03:19:59;;;;;;;;;;;;;;;1.27;100.00;98458.44;5081367;28;19932;-70
2022/12/12 03:22:29;;;;;;;;;;;;;;;1.27;100.00;98458.44;5085831;28;19935;-72
2022/12/12 03:24:59;;;;;;;;;;;;;;;1.29;100.00;98463.59;5084121;28;20426;-71
2022/12/12 03:27:29;;;;;;;;;;;;;;;1.30;100.00;98467.91;5086593;28;19950;-71
2022/12/12 03:29:55;;;;;;;;;;;;;;;1.30;100.00;98468.72;5084129;28;20327;-70
2022/12/12 03:32:22;;;;;;;;;;;;;;;1.31;100.00;98459.56;5085614;28;19928;-71
2022/12/12 03:34:53;;;;;;;;;;;;;;;1.31;100.00;98477.63;5084149;28;19934;-70
2022/12/12 03:37:22;;;;;;;;;;;;;;;1.29;100.00;98455.50;5084967;28;19928;-71
2022/12/12 03:39:49;;;;;;;;;;;;;;;1.28;100.00;98462.75;5083262;28;20484;-70
2022/12/12 03:42:18;;;;;;;;;;;;;;;1.30;100.00;98463.31;5083131;28;20341;-71
2022/12/12 03:44:47;;;;;;;;;;;;;;;1.33;100.00;98459.31;5084826;28;19943;-71
2022/12/12 03:47:14;;;;;;;;;;;;;;;1.31;100.00;98456.06;5085503;28;19932;-69
2022/12/12 03:49:44;;;;;;;;;;;;;;;1.29;100.00;98445.53;5084893;28;19939;-71
2022/12/12 03:52:14;;;;;;;;;;;;;;;1.30;100.00;98452.53;5087898;28;19935;-71
2022/12/12 03:54:44;;;;;;;;;;;;;;;1.30;100.00;98457.13;5084410;28;19928;-71
2022/12/12 03:57:14;;;;;;;;;;;;;;;1.31;100.00;98456.06;5080764;28;20395;-71
2022/12/12 03:59:42;;;;;;;;;;;;;;;1.32;100.00;98449.63;5116920;27;19928;-71
2022/12/12 04:02:11;;;;;;;;;;;;;;;1.31;100.00;98458.75;5083448;28;19928;-71
2022/12/12 04:04:40;;;;;;;;;;;;;;;1.30;100.00;98452.53;5083259;28;19928;-71
2022/12/12 04:07:10;;;;;;;;;;;;;;;1.32;100.00;98455.00;5085461;28;20410;-71
2022/12/12 04:15:19;;;;;;;;;;;;;;;1.34;100.00;98458.25;5084064;28;19928;-71
2022/12/12 04:17:49;;;;;;;;;;;;;;;1.32;100.00;98450.41;5081394;28;20080;-70
2022/12/12 04:23:15;;;;;;;;;;;;;;;1.31;100.00;98446.09;5083364;28;19927;-70
2022/12/12 04:28:33;;;;;;;;;;;;;;;1.32;100.00;98455.00;5087280;28;19928;-71
2022/12/12 04:31:00;;;;;;;;;;;;;;;1.30;100.00;98455.25;5084116;28;20422;-71
2022/12/12 04:33:28;;;;;;;;;;;;;;;1.30;100.00;98463.31;5084950;28;20280;-71
2022/12/12 04:35:56;;;;;;;;;;;;;;;1.29;100.00;98459.00;5085550;28;20189;-71
2022/12/12 04:38:22;;;;;;;;;;;;;;;1.29;100.00;98467.06;5086361;28;19963;-71
2022/12/12 04:40:52;;;;;;;;;;;;;;;1.29;100.00;98466.28;5086119;28;19935;-72
2022/12/12 04:43:21;;;;;;;;;;;;;;;1.32;100.00;98463.88;5069161;28;20031;-71
2022/12/12 04:45:48;;;;;;;;;;;;;;;1.33;100.00;98470.94;5082643;28;20022;-68
2022/12/12 04:48:16;;;;;;;;;;;;;;;1.33;100.00;98468.22;4730125;28;10000227;-67
2022/12/12 04:50:43;;;;;;;;;;;;;;;1.32;100.00;98476.56;5082444;28;20039;-67
2022/12/12 04:53:10;;;;;;;;;;;;;;;1.34;100.00;98467.16;5081567;28;20050;-67
2022/12/12 04:55:38;;;;;;;;;;;;;;;1.35;100.00;98458.03;5080375;28;19951;-67
2022/12/12 04:58:06;;;;;;;;;;;;;;;1.35;100.00;98468.81;5051476;28;19928;-67
2022/12/12 05:00:37;;;;;;;;;;;;;;;1.35;100.00;98463.41;5058463;28;19928;-68
2022/12/12 05:03:07;;;;;;;;;;;;;;;1.33;100.00;98453.94;5076871;28;19928;-67
2022/12/12 05:05:35;;;;;;;;;;;;;;;1.35;100.00;98458.03;5078343;28;19931;-68
2022/12/12 05:08:04;;;;;;;;;;;;;;;1.34;100.00;98458.25;5076899;28;19932;-68
2022/12/12 05:10:30;;;;;;;;;;;;;;;1.32;100.00;98463.09;5110716;27;19959;-68
2022/12/12 05:12:57;;;;;;;;;;;;;;;1.31;100.00;98458.75;5080902;28;19932;-68
2022/12/12 05:15:25;;;;;;;;;;;;;;;1.34;100.00;98466.34;5083039;28;20440;-68
2022/12/12 05:17:55;;;;;;;;;;;;;;;1.33;100.00;98459.31;5075374;28;19973;-68
2022/12/12 05:20:20;;;;;;;;;;;;;;;1.31;100.00;98469.53;5078097;28;19955;-68
2022/12/12 05:22:46;;;;;;;;;;;;;;;1.30;100.00;98466.00;5073101;28;20721;-70
2022/12/12 05:25:12;;;;;;;;;;;;;;;1.30;100.00;98468.72;5057825;28;20529;-71
2022/12/12 05:27:38;;;;;;;;;;;;;;;1.29;100.00;98468.97;5056751;28;20027;-71
2022/12/12 05:30:05;;;;;;;;;;;;;;;1.27;100.00;98470.03;5077056;28;19932;-71
2022/12/12 05:32:32;;;;;;;;;;;;;;;1.30;100.00;98473.28;5077340;28;19928;-71
2022/12/12 05:34:58;;;;;;;;;;;;;;;1.30;100.00;98484.88;5078820;28;19928;-71
2022/12/12 05:37:24;;;;;;;;;;;;;;;1.32;100.00;98480.03;5082165;28;19932;-70
2022/12/12 05:39:50;;;;;;;;;;;;;;;1.31;100.00;98466.84;5081677;28;19973;-71
2022/12/12 05:42:15;;;;;;;;;;;;;;;1.30;100.00;98482.16;5081101;28;19934;-71
2022/12/12 05:44:41;;;;;;;;;;;;;;;1.30;100.00;98473.28;5083966;28;19954;-71
2022/12/12 05:47:07;;;;;;;;;;;;;;;1.31;100.00;98480.31;5067517;28;20380;-71
2022/12/12 05:49:34;;;;;;;;;;;;;;;1.31;100.00;98470.34;5081815;28;19928;-71
2022/12/12 05:52:00;;;;;;;;;;;;;;;1.29;100.00;98466.28;5086830;28;20041;-71
2022/12/12 05:54:26;;;;;;;;;;;;;;;1.30;100.00;98474.09;5085553;28;19940;-69
2022/12/12 05:56:52;;;;;;;;;;;;;;;1.29;100.00;98466.28;5084164;28;20438;-69
2022/12/12 05:59:19;;;;;;;;;;;;;;;1.29;100.00;98468.97;5083484;28;19928;-68
2022/12/12 06:01:44;;;;;;;;;;;;;;;1.31;100.00;98474.91;5086873;28;20287;-68
2022/12/12 06:04:10;;;;;;;;;;;;;;;1.32;100.00;98493.50;5087137;28;19928;-68
2022/12/12 06:06:37;;;;;;;;;;;;;;;1.30;100.00;98489.44;5083055;28;19928;-68
2022/12/12 06:09:03;;;;;;;;;;;;;;;1.29;100.00;98493.22;5064828;28;20399;-68
2022/12/12 06:11:29;;;;;;;;;;;;;;;1.29;100.00;98485.94;5084454;28;19997;-68
2022/12/12 06:13:55;;;;;;;;;;;;;;;1.25;100.00;98491.00;5066370;28;20432;-70
2022/12/12 06:16:20;;;;;;;;;;;;;;;1.25;100.00;98487.50;5099497;28;19934;-70
2022/12/12 06:18:49;;;;;;;;;;;;;;;1.25;100.00;98495.56;5105754;28;19985;-70
2022/12/12 06:21:16;;;;;;;;;;;;;;;1.27;100.00;98496.13;5083208;28;19974;-71
2022/12/12 06:23:43;;;;;;;;;;;;;;;1.28;100.00;98497.75;5082235;28;20277;-68
2022/12/12 06:26:10;;;;;;;;;;;;;;;1.26;100.00;98489.94;5085552;28;19963;-68
2022/12/12 06:28:37;;;;;;;;;;;;;;;1.29;100.00;98490.50;5087018;28;19955;-68
2022/12/12 06:31:03;;;;;;;;;;;;;;;1.29;100.00;98488.63;5086865;28;19928;-68
2022/12/12 06:33:30;;;;;;;;;;;;;;;1.29;100.00;98482.44;5086751;28;19928;-68
2022/12/12 06:35:57;;;;;;;;;;;;;;;1.27;100.00;98479.97;5083272;28;19932;-68
2022/12/12 06:38:22;;;;;;;;;;;;;;;1.29;100.00;98477.84;5084243;28;19931;-68
2022/12/12 06:40:50;;;;;;;;;;;;;;;1.31;100.00;98485.69;5087743;28;20329;-68
2022/12/12 06:43:15;;;;;;;;;;;;;;;1.28;100.00;98487.00;5068696;28;20026;-68
2022/12/12 06:45:41;;;;;;;;;;;;;;;1.29;100.00;98490.50;5085359;28;20384;-68
2022/12/12 06:48:07;;;;;;;;;;;;;;;1.32;100.00;98498.91;5083402;28;19932;-68
2022/12/12 06:50:32;;;;;;;;;;;;;;;1.29;100.00;98503.97;5084814;28;20030;-68
2022/12/12 06:52:58;;;;;;;;;;;;;;;1.29;100.00;98498.59;5083404;28;20395;-68
2022/12/12 06:55:24;;;;;;;;;;;;;;;1.27;100.00;98499.66;5084748;28;20356;-68
2022/12/12 06:57:51;;;;;;;;;;;;;;;1.30;100.00;98497.53;5087097;28;20392;-68
2022/12/12 07:00:17;;;;;;;;;;;;;;;1.31;100.00;98485.69;5083894;28;19928;-68
2022/12/12 07:02:43;;;;;;;;;;;;;;;1.31;100.00;98499.97;5084223;28;19935;-68
2022/12/12 07:05:09;;;;;;;;;;;;;;;1.30;100.00;98482.16;5083747;28;19928;-68
2022/12/12 07:07:34;;;;;;;;;;;;;;;1.32;100.00;98484.63;5084891;28;20058;-68
2022/12/12 07:10:00;;;;;;;;;;;;;;;1.32;100.00;98501.59;5082889;28;19928;-68
2022/12/12 07:12:26;;;;;;;;;;;;;;;1.33;100.00;98510.50;5084923;28;20345;-67
2022/12/12 07:14:53;;;;;;;;;;;;;;;1.34;100.00;98522.91;5083966;28;20772;-68
2022/12/12 07:17:18;;;;;;;;;;;;;;;1.35;100.00;98532.63;5066079;28;19928;-68
2022/12/12 07:19:44;;;;;;;;;;;;;;;1.33;100.00;98510.50;5081857;28;19932;-68
2022/12/12 07:22:10;;;;;;;;;;;;;;;1.35;100.00;98506.50;5082934;28;19928;-68
2022/12/12 07:24:36;;;;;;;;;;;;;;;1.37;100.00;98514.31;5083383;28;19957;-68
2022/12/12 07:27:02;;;;;;;;;;;;;;;1.35;100.00;98516.44;5083969;28;19927;-67
2022/12/12 07:29:27;;;;;;;;;;;;;;;1.39;100.00;98512.19;5080496;28;19931;-68
2022/12/12 07:31:54;;;;;;;;;;;;;;;1.39;100.00;98512.19;5085680;28;20403;-68
2022/12/12 07:34:20;;;;;;;;;;;;;;;1.41;100.00;98510.09;5067230;28;20407;-68
2022/12/12 07:36:46;;;;;;;;;;;;;;;1.39;100.00;98510.34;5085527;28;20027;-68
2022/12/12 07:39:12;;;;;;;;;;;;;;;1.43;100.00;98521.44;5085164;28;20452;-68
2022/12/12 07:41:38;;;;;;;;;;;;;;;1.47;100.00;98502.88;5084181;28;19974;-68
2022/12/12 07:44:04;;;;;;;;;;;;;;;1.49;100.00;98504.28;5116205;28;19964;-68
2022/12/12 07:46:30;;;;;;;;;;;;;;;1.48;100.00;98512.59;5081778;28;19943;-67
2022/12/12 07:48:57;;;;;;;;;;;;;;;1.46;100.00;98502.09;5083026;28;20402;-68
2022/12/12 07:51:23;;;;;;;;;;;;;;;1.47;100.00;98510.97;5083100;28;19942;-67
2022/12/12 07:53:48;;;;;;;;;;;;;;;1.46;100.00;98515.56;5085459;28;20373;-67
2022/12/12 07:56:15;;;;;;;;;;;;;;;1.45;100.00;98519.31;5066076;28;19932;-68
2022/12/12 07:58:40;;;;;;;;;;;;;;;1.44;100.00;98514.16;5082835;28;20363;-68
2022/12/12 08:01:10;;;;;;;;;;;;;;;1.43;100.00;98507.97;5084654;28;19970;-69
2022/12/12 08:03:36;;;;;;;;;;;;;;;1.44;100.00;98512.28;5085038;28;19959;-68
2022/12/12 08:06:04;;;;;;;;;;;;;;;1.46;100.00;98514.72;5081113;28;20025;-68
2022/12/12 08:08:30;;;;;;;;;;;;;;;1.43;100.00;98518.75;5051951;28;19928;-68
2022/12/12 08:10:56;;;;;;;;;;;;;;;1.44;100.00;98506.06;5089467;28;20418;-68
2022/12/12 08:13:22;;;;;;;;;;;;;;;1.46;100.00;98512.88;5089816;28;19935;-68
2022/12/12 08:15:48;;;;;;;;;;;;;;;1.47;100.00;98519.06;5086457;28;19928;-68
2022/12/12 08:18:13;;;;;;;;;;;;;;;1.47;100.00;98509.09;5088214;28;19934;-68
2022/12/12 08:20:39;;;;;;;;;;;;;;;1.48;100.00;98510.72;5070124;28;20050;-68
2022/12/12 08:23:07;;;;;;;;;;;;;;;1.50;100.00;98505.91;5088215;28;19973;-68
2022/12/12 08:25:33;;;;;;;;;;;;;;;1.51;100.00;98515.63;5088080;28;19928;-68
2022/12/12 08:27:59;;;;;;;;;;;;;;;1.51;100.00;98512.94;5087543;28;19928;-68
2022/12/12 08:30:24;;;;;;;;;;;;;;;1.53;100.00;98510.00;5085842;28;19935;-68
2022/12/12 08:32:50;;;;;;;;;;;;;;;1.52;100.00;98508.38;5085917;28;20335;-69
2022/12/12 08:35:16;;;;;;;;;;;;;;;1.51;100.00;98507.53;5088619;28;20367;-68
2022/12/12 08:37:42;;;;;;;;;;;;;;;1.52;100.00;98527.22;5086878;28;19927;-69
2022/12/12 08:40:10;;;;;;;;;;;;;;;1.49;100.00;98520.44;5087434;28;19928;-68
2022/12/12 08:42:36;;;;;;;;;;;;;;;1.51;100.00;98514.81;5086097;28;20311;-68
2022/12/12 08:45:01;;;;;;;;;;;;;;;1.49;100.00;98530.41;5089282;28;19928;-68
2022/12/12 08:47:29;;;;;;;;;;;;;;;1.48;100.00;98524.19;5087279;28;19935;-68
2022/12/12 08:49:54;;;;;;;;;;;;;;;1.51;100.00;98523.69;5087671;28;19939;-68
2022/12/12 08:52:20;;;;;;;;;;;;;;;1.50;100.00;98526.66;5087334;28;20026;-68
2022/12/12 08:54:46;;;;;;;;;;;;;;;1.50;100.00;98518.59;5086706;28;20309;-68
2022/12/12 08:57:13;;;;;;;;;;;;;;;1.51;100.00;98526.41;5087368;28;19973;-68
2022/12/12 08:59:39;;;;;;;;;;;;;;;1.51;100.00;98528.28;5086580;28;19961;-68
2022/12/12 09:02:05;;;;;;;;;;;;;;;1.51;100.00;98534.47;5087019;28;20341;-67
2022/12/12 09:04:32;;;;;;;;;;;;;;;1.50;100.00;98538.25;5086087;28;19935;-68
2022/12/12 09:06:58;;;;;;;;;;;;;;;1.48;100.00;98529.59;5084956;28;20014;-68
2022/12/12 09:09:24;;;;;;;;;;;;;;;1.48;100.00;98526.06;5085874;28;19963;-68
2022/12/12 09:11:50;;;;;;;;;;;;;;;1.49;100.00;98530.41;5086320;28;19970;-67
2022/12/12 09:14:17;;;;;;;;;;;;;;;1.49;100.00;98531.22;5069741;28;20035;-68
2022/12/12 09:16:43;;;;;;;;;;;;;;;1.49;100.00;98531.22;5064085;28;19935;-68
2022/12/12 09:19:10;;;;;;;;;;;;;;;1.52;100.00;98524.53;5084225;28;19973;-67
2022/12/12 09:21:36;;;;;;;;;;;;;;;1.53;100.00;98528.84;5086185;28;19936;-68
2022/12/12 09:24:02;;;;;;;;;;;;;;;1.51;100.00;98521.00;5085692;28;19962;-67
2022/12/12 09:26:27;;;;;;;;;;;;;;;1.52;100.00;98533.41;5086965;28;19928;-68
2022/12/12 09:28:53;;;;;;;;;;;;;;;1.53;100.00;98543.13;5083497;28;19951;-67
2022/12/12 09:31:20;;;;;;;;;;;;;;;1.57;100.00;98535.38;5082832;28;19927;-68
2022/12/12 09:33:47;;;;;;;;;;;;;;;1.59;100.00;98532.44;5084758;28;19935;-68
2022/12/12 09:36:13;;;;;;;;;;;;;;;1.57;100.00;98545.34;5084469;28;19928;-67
2022/12/12 09:38:40;;;;;;;;;;;;;;;1.57;100.00;98540.78;5086769;28;20391;-67
2022/12/12 09:41:10;;;;;;;;;;;;;;;1.55;100.00;98532.91;5087133;28;19981;-67
2022/12/12 09:43:39;;;;;;;;;;;;;;;1.55;100.00;98538.31;5066832;28;19928;-68
2022/12/12 09:46:12;;;;;;;;;;;;;;;1.59;100.00;98527.06;5087270;28;19928;-68
2022/12/12 09:48:41;;;;;;;;;;;;;;;1.58;100.00;98528.94;5085097;28;19927;-67
2022/12/12 09:51:08;;;;;;;;;;;;;;;1.61;100.00;98516.84;5085225;28;19928;-67
2022/12/12 09:53:34;;;;;;;;;;;;;;;1.61;100.00;98533.81;5083071;28;19948;-68
2022/12/12 09:56:05;;;;;;;;;;;;;;;1.64;99.99;98524.44;5084359;28;19935;-68
2022/12/12 09:58:35;;;;;;;;;;;;;;;1.62;99.93;98527.38;5083715;28;19928;-67
2022/12/12 10:01:05;;;;;;;;;;;;;;;1.64;99.86;98529.81;5066680;28;21276;-68
2022/12/12 10:03:42;;;;;;;;;;;;;;;1.65;99.88;98526.91;5067029;28;20344;-68
2022/12/12 10:06:10;;;;;;;;;;;;;;;1.68;99.58;98528.25;5082555;28;19928;-67
2022/12/12 10:08:41;;;;;;;;;;;;;;;1.68;99.60;98539.88;5083785;28;19934;-68
2022/12/12 10:11:48;;;;;;;;;;;;;;;1.67;99.69;98532.00;5085989;28;19935;-69
2022/12/12 10:13:58;;;;;;;;;;;;;;;1.67;99.70;98521.25;5087704;28;20315;-67
2022/12/12 10:16:24;;;;;;;;;;;;;;;1.66;99.89;98527.69;5086293;28;19959;-68
2022/12/12 10:18:52;;;;;;;;;;;;;;;1.63;99.73;98520.09;5084794;28;19935;-68
2022/12/12 10:21:21;;;;;;;;;;;;;;;1.62;99.88;98530.06;5083235;28;19934;-68
2022/12/12 10:23:49;;;;;;;;;;;;;;;1.64;99.84;98511.78;5083843;28;20389;-67
2022/12/12 10:26:16;;;;;;;;;;;;;;;1.63;99.82;98520.91;5085053;28;20325;-68
2022/12/12 10:28:43;;;;;;;;;;;;;;;1.65;99.89;98517.97;5084903;28;20027;-68
2022/12/12 10:31:16;;;;;;;;;;;;;;;1.68;99.88;98501.31;5082304;28;19927;-67
2022/12/12 10:33:50;;;;;;;;;;;;;;;1.67;99.66;98518.53;5080751;28;19928;-68
2022/12/12 10:36:22;;;;;;;;;;;;;;;1.62;99.56;98516.59;5084607;28;19927;-68
2022/12/12 10:38:59;;;;;;;;;;;;;;;1.62;99.91;98523.88;5082068;28;19996;-67
2022/12/12 10:41:30;;;;;;;;;;;;;;;1.64;99.88;98519.03;5084205;28;20243;-67
2022/12/12 10:43:58;;;;;;;;;;;;;;;1.64;100.00;98510.97;5083201;28;20278;-68
2022/12/12 10:46:27;;;;;;;;;;;;;;;1.67;100.00;98508.59;5066564;28;19989;-68
2022/12/12 10:48:53;;;;;;;;;;;;;;;1.67;100.00;98513.97;5085855;28;19946;-68
2022/12/12 10:51:24;;;;;;;;;;;;;;;1.68;100.00;98498.63;5083206;28;22257;-68
2022/12/12 10:53:51;;;;;;;;;;;;;;;1.64;99.84;98522.56;5081954;28;19928;-67
2022/12/12 10:56:21;;;;;;;;;;;;;;;1.64;99.70;98519.03;5083022;28;20417;-67
2022/12/12 10:58:51;;;;;;;;;;;;;;;1.63;99.72;98523.59;5083150;28;19928;-67
2022/12/12 11:01:19;;;;;;;;;;;;;;;1.63;99.78;98517.41;5086422;28;19928;-68
2022/12/12 11:03:45;;;;;;;;;;;;;;;1.61;99.65;98524.94;5083321;28;20051;-67
2022/12/12 11:06:13;;;;;;;;;;;;;;;1.59;99.69;98518.97;5085244;28;19973;-68
2022/12/12 11:08:53;;;;;;;;;;;;;;;1.59;99.87;98525.16;5082831;28;20537;-67
2022/12/12 11:11:20;;;;;;;;;;;;;;;1.59;99.89;98509.00;5084504;28;20413;-67
2022/12/12 11:13:49;;;;;;;;;;;;;;;1.58;99.51;98525.44;5083513;28;19932;-67
2022/12/12 11:16:15;;;;;;;;;;;;;;;1.59;99.40;98518.97;5083757;28;19932;-67
2022/12/12 11:18:54;;;;;;;;;;;;;;;1.61;99.42;98538.41;5076091;28;20198;-67
2022/12/12 11:21:20;;;;;;;;;;;;;;;1.59;99.44;98506.31;5080199;28;20410;-67
2022/12/12 11:23:50;;;;;;;;;;;;;;;1.62;99.06;98505.81;5082666;28;19935;-67
2022/12/12 11:26:18;;;;;;;;;;;;;;;1.60;98.92;98502.53;5080548;28;19936;-67
2022/12/12 11:28:46;;;;;;;;;;;;;;;1.60;98.83;98510.63;5080347;28;19993;-67
2022/12/12 11:31:13;;;;;;;;;;;;;;;1.61;98.76;98514.16;5082574;28;19928;-67
2022/12/12 11:33:42;;;;;;;;;;;;;;;1.62;98.91;98508.50;5081978;28;19928;-67
2022/12/12 11:36:12;;;;;;;;;;;;;;;1.62;98.63;98503.09;5084357;28;20315;-69
2022/12/12 11:38:39;;;;;;;;;;;;;;;1.62;98.62;98502.31;5081616;28;19950;-69
2022/12/12 11:41:06;;;;;;;;;;;;;;;1.60;98.34;98502.53;5084417;28;19932;-69
2022/12/12 11:43:36;;;;;;;;;;;;;;;1.60;98.28;98507.94;5079899;28;19947;-69
2022/12/12 11:46:03;;;;;;;;;;;;;;;1.62;98.00;98507.69;5084779;28;19928;-69
2022/12/12 11:48:38;;;;;;;;;;;;;;;1.65;97.90;98501.81;5086248;28;19936;-69
2022/12/12 11:51:04;;;;;;;;;;;;;;;1.63;97.76;98493.97;5086542;28;19973;-69
2022/12/12 11:53:31;;;;;;;;;;;;;;;1.65;97.72;98516.13;5086291;28;19932;-69
2022/12/12 11:56:05;;;;;;;;;;;;;;;1.63;97.68;98496.66;5086927;28;20039;-69
2022/12/12 11:58:35;;;;;;;;;;;;;;;1.62;97.33;98484.25;5085573;28;20022;-69
2022/12/12 12:01:05;;;;;;;;;;;;;;;1.60;97.31;98496.34;5085998;28;20023;-69
2022/12/12 12:03:41;;;;;;;;;;;;;;;1.59;97.34;98510.91;5083682;28;19928;-69
2022/12/12 12:06:18;;;;;;;;;;;;;;;1.58;97.08;98517.34;5084774;28;19989;-69
2022/12/12 12:08:50;;;;;;;;;;;;;;;1.58;96.97;98522.75;5083810;28;19963;-69
2022/12/12 12:11:24;;;;;;;;;;;;;;;1.57;97.16;98511.13;5078191;28;19939;-69
2022/12/12 12:13:59;;;;;;;;;;;;;;;1.59;96.63;98521.66;5087929;28;19951;-67
2022/12/12 12:16:31;;;;;;;;;;;;;;;1.53;96.46;98512.69;5080696;28;19928;-67
2022/12/12 12:19:02;;;;;;;;;;;;;;;1.53;96.62;98510.81;5084407;28;19928;-67
2022/12/12 12:21:33;;;;;;;;;;;;;;;1.52;96.55;98501.09;5087641;28;19928;-67
2022/12/12 12:24:07;;;;;;;;;;;;;;;1.54;96.68;98495.47;5088352;28;19950;-67
2022/12/12 12:26:35;;;;;;;;;;;;;;;1.54;96.77;98500.84;5088416;28;19964;-68
2022/12/12 12:29:10;;;;;;;;;;;;;;;1.52;96.70;98501.09;5085424;28;19978;-67
2022/12/12 12:31:42;;;;;;;;;;;;;;;1.52;96.54;98511.88;5069635;28;19928;-67
2022/12/12 12:34:13;;;;;;;;;;;;;;;1.48;96.62;98497.25;5085922;28;20578;-67
2022/12/12 12:36:44;;;;;;;;;;;;;;;1.47;96.74;98498.31;5083235;28;19938;-69
2022/12/12 12:39:17;;;;;;;;;;;;;;;1.45;96.66;98488.84;5082269;28;20127;-67
2022/12/12 12:41:54;;;;;;;;;;;;;;;1.48;96.86;98485.66;5085143;28;19928;-67
2022/12/12 12:44:35;;;;;;;;;;;;;;;1.47;96.74;98484.03;5086707;28;19993;-67
2022/12/12 12:47:06;;;;;;;;;;;;;;;1.44;96.44;98482.66;5086302;28;19967;-67
2022/12/12 12:49:33;;;;;;;;;;;;;;;1.43;96.54;98475.66;5062783;28;19970;-67
2022/12/12 12:52:01;;;;;;;;;;;;;;;1.40;96.40;98486.88;5074073;28;19989;-67
2022/12/12 12:54:30;;;;;;;;;;;;;;;1.39;96.84;98504.13;5066606;28;20288;-67
2022/12/12 12:56:59;;;;;;;;;;;;;;;1.37;96.64;98496.31;5086224;28;20302;-67
2022/12/12 12:59:28;;;;;;;;;;;;;;;1.35;96.44;98498.44;5083412;28;20419;-67
2022/12/12 13:01:55;;;;;;;;;;;;;;;1.35;96.81;98501.13;5084294;28;19951;-67
2022/12/12 13:04:25;;;;;;;;;;;;;;;1.32;96.84;98492.72;5085659;28;19928;-67
2022/12/12 13:06:55;;;;;;;;;;;;;;;1.30;97.00;98494.84;5083860;28;20314;-67
2022/12/12 13:09:24;;;;;;;;;;;;;;;1.27;97.09;98493.44;5086112;28;19928;-67